createdAt,value
2022-12-20T00:00:58.234Z,15.48
2022-12-20T00:04:05.701Z,17.52
2022-12-20T00:07:07.208Z,17.70
2022-12-20T00:10:08.721Z,18.90
2022-12-20T00:13:10.541Z,19.20
2022-12-20T00:16:13.443Z,12.68
2022-12-20T00:19:14.752Z,15.77
2022-12-20T00:22:15.999Z,15.13
2022-12-20T00:25:17.245Z,16.70
2022-12-20T00:28:18.503Z,16.40
2022-12-20T00:31:20.572Z,22.48
2022-12-20T00:34:22.116Z,17.08
2022-12-20T00:37:23.418Z,12.00
2022-12-20T00:40:24.713Z,14.05
2022-12-20T00:43:25.993Z,15.52
2022-12-20T00:46:27.834Z,13.80
2022-12-20T00:49:29.160Z,14.00
2022-12-20T00:52:30.448Z,14.80
2022-12-20T00:55:31.726Z,12.43
2022-12-20T00:58:33.624Z,13.27
2022-12-20T01:01:35.263Z,10.27
2022-12-20T01:04:36.600Z,14.98
2022-12-20T01:07:37.883Z,16.00
2022-12-20T01:10:39.127Z,12.73
2022-12-20T01:13:41.953Z,13.50
2022-12-20T01:16:44.990Z,10.77
2022-12-20T01:19:46.366Z,19.38
2022-12-20T01:22:47.908Z,13.70
2022-12-20T01:25:51.055Z,15.77
2022-12-20T01:28:53.211Z,13.65
2022-12-20T01:31:54.814Z,14.70
2022-12-20T01:34:56.167Z,17.35
2022-12-20T01:37:57.435Z,19.77
2022-12-20T01:40:58.837Z,13.80
2022-12-20T01:44:01.716Z,12.13
2022-12-20T01:47:03.673Z,16.50
2022-12-20T01:50:07.489Z,13.73
2022-12-20T01:53:09.406Z,18.15
2022-12-20T01:56:10.945Z,17.88
2022-12-20T01:59:12.962Z,15.00
2022-12-20T02:02:14.450Z,17.95
2022-12-20T02:05:17.584Z,17.50
2022-12-20T02:08:19.616Z,16.17
2022-12-20T02:11:37.722Z,13.32
2022-12-20T02:14:51.520Z,14.18
2022-12-20T02:18:15.625Z,12.23
2022-12-20T02:21:32.788Z,11.70
2022-12-20T02:24:51.312Z,10.32
2022-12-20T02:28:12.846Z,16.35
2022-12-20T02:31:17.492Z,14.63
2022-12-20T02:34:21.565Z,17.38
2022-12-20T02:37:22.859Z,15.75
2022-12-20T02:40:27.596Z,12.02
2022-12-20T02:43:48.493Z,10.85
2022-12-20T02:46:50.368Z,14.02
2022-12-20T02:49:53.519Z,10.60
2022-12-20T02:52:55.064Z,11.75
2022-12-20T02:56:02.280Z,14.43
2022-12-20T02:59:13.791Z,12.85
2022-12-20T03:02:15.814Z,14.43
2022-12-20T03:05:18.004Z,13.98
2022-12-20T03:08:20.407Z,13.57
2022-12-20T03:11:21.671Z,16.65
2022-12-20T03:14:23.035Z,12.50
2022-12-20T03:17:24.304Z,15.18
2022-12-20T03:20:25.678Z,9.70
2022-12-20T03:23:27.004Z,15.05
2022-12-20T03:26:28.282Z,17.38
2022-12-20T03:29:29.540Z,11.20
2022-12-20T03:32:30.822Z,13.88
2022-12-20T03:35:32.112Z,13.93
2022-12-20T03:38:33.373Z,12.45
2022-12-20T03:41:34.632Z,14.80
2022-12-20T03:44:36.006Z,13.35
2022-12-20T03:47:37.427Z,13.48
2022-12-20T03:50:38.719Z,11.10
2022-12-20T03:53:39.955Z,10.98
2022-12-20T03:56:41.262Z,18.42
2022-12-20T03:59:43.350Z,14.38
2022-12-20T04:02:44.911Z,16.38
2022-12-20T04:05:46.555Z,13.07
2022-12-20T04:08:47.818Z,14.77
2022-12-20T04:11:49.129Z,10.18
2022-12-20T04:14:50.358Z,14.77
2022-12-20T04:17:51.605Z,11.95
2022-12-20T04:20:53.437Z,10.40
2022-12-20T04:23:54.833Z,10.65
2022-12-20T04:26:56.122Z,10.70
2022-12-20T04:29:57.400Z,11.93
2022-12-20T04:32:58.664Z,17.30
2022-12-20T04:35:59.949Z,13.48
2022-12-20T04:39:01.236Z,8.85
2022-12-20T04:42:02.503Z,11.27
2022-12-20T04:45:04.279Z,11.93
2022-12-20T04:48:36.883Z,12.35
2022-12-20T04:51:27.769Z,14.57
2022-12-20T04:54:29.072Z,9.90
2022-12-20T04:57:30.374Z,13.50
2022-12-20T05:00:32.233Z,14.70
2022-12-20T05:03:33.697Z,15.38
2022-12-20T05:06:35.031Z,14.00
2022-12-20T05:09:36.315Z,11.48
2022-12-20T05:12:37.703Z,13.35
2022-12-20T05:15:39.515Z,13.32
2022-12-20T05:18:48.255Z,14.23
2022-12-20T05:22:08.940Z,15.30
2022-12-20T05:25:29.475Z,14.07
2022-12-20T05:28:31.701Z,11.80
2022-12-20T05:31:33.125Z,12.95
2022-12-20T05:34:34.414Z,16.67
2022-12-20T05:37:35.785Z,13.35
2022-12-20T05:40:37.307Z,12.15
2022-12-20T05:43:38.608Z,15.82
2022-12-20T05:46:39.938Z,13.45
2022-12-20T05:49:41.276Z,14.52
2022-12-20T05:52:42.656Z,14.30
2022-12-20T05:55:53.981Z,14.48
2022-12-20T05:58:55.288Z,12.13
2022-12-20T06:01:56.621Z,13.10
2022-12-20T06:04:59.011Z,13.15
2022-12-20T06:08:00.256Z,12.95
2022-12-20T06:11:04.671Z,16.58
2022-12-20T06:14:05.899Z,15.60
2022-12-20T06:17:07.253Z,12.75
2022-12-20T06:20:08.925Z,16.75
2022-12-20T06:23:10.231Z,12.07
2022-12-20T06:26:11.520Z,14.70
2022-12-20T06:29:14.263Z,12.35
2022-12-20T06:32:15.544Z,13.38
2022-12-20T06:35:16.929Z,11.15
2022-12-20T06:38:18.428Z,7.70
2022-12-20T06:41:19.765Z,12.40
2022-12-20T06:44:21.109Z,7.38
2022-12-20T06:47:22.401Z,7.35
2022-12-20T06:50:23.886Z,6.57
2022-12-20T06:53:25.179Z,5.75
2022-12-20T06:56:26.473Z,6.97
2022-12-20T06:59:27.758Z,7.43
2022-12-20T07:02:29.247Z,7.00
2022-12-20T07:05:30.668Z,5.55
2022-12-20T07:08:31.935Z,6.30
2022-12-20T07:11:33.203Z,7.18
2022-12-20T07:14:34.454Z,8.07
2022-12-20T07:17:35.723Z,9.15
2022-12-20T07:20:38.565Z,8.60
2022-12-20T07:23:39.860Z,8.63
2022-12-20T07:26:41.695Z,13.23
2022-12-20T07:29:43.264Z,10.50
2022-12-20T07:32:45.103Z,10.73
2022-12-20T07:39:08.114Z,10.43
2022-12-20T07:42:09.396Z,13.00
2022-12-20T07:45:10.792Z,8.10
2022-12-20T07:48:16.432Z,11.07
2022-12-20T07:51:23.736Z,6.65
2022-12-20T07:54:31.298Z,13.13
2022-12-20T07:57:36.477Z,11.57
2022-12-20T08:00:38.925Z,11.57
2022-12-20T08:03:44.221Z,11.88
2022-12-20T08:06:46.422Z,10.93
2022-12-20T08:09:47.915Z,10.35
2022-12-20T08:12:49.577Z,9.90
2022-12-20T08:15:50.923Z,11.45
2022-12-20T08:18:52.441Z,10.52
2022-12-20T08:21:54.160Z,12.18
2022-12-20T08:24:55.501Z,8.82
2022-12-20T08:27:56.764Z,8.60
2022-12-20T08:31:02.176Z,7.50
2022-12-20T08:34:03.516Z,9.50
2022-12-20T08:37:10.664Z,9.27
2022-12-20T08:40:15.816Z,9.05
2022-12-20T08:43:17.130Z,12.10
2022-12-20T08:46:18.491Z,9.00
2022-12-20T08:49:19.851Z,8.18
2022-12-20T08:52:21.635Z,14.32
2022-12-20T08:55:27.669Z,7.07
2022-12-20T08:58:30.742Z,10.15
2022-12-20T09:01:33.912Z,14.52
2022-12-20T09:04:35.306Z,9.52
2022-12-20T09:07:36.618Z,7.00
2022-12-20T09:10:37.933Z,6.47
2022-12-20T09:13:44.130Z,9.40
2022-12-20T09:16:45.933Z,9.38
2022-12-20T09:19:47.184Z,8.77
2022-12-20T09:22:48.429Z,6.88
2022-12-20T09:25:53.740Z,7.55
2022-12-20T09:28:55.519Z,5.93
2022-12-20T09:31:56.891Z,6.30
2022-12-20T09:34:58.253Z,7.13
2022-12-20T09:37:59.576Z,9.50
2022-12-20T09:41:04.582Z,7.35
2022-12-20T09:44:27.188Z,5.65
2022-12-20T09:47:28.565Z,7.15
2022-12-20T09:50:44.993Z,13.05
2022-12-20T09:53:52.042Z,17.17
2022-12-20T09:56:59.529Z,11.23
2022-12-20T10:00:00.904Z,9.98
2022-12-20T10:03:10.032Z,10.18
2022-12-20T10:06:17.892Z,9.70
2022-12-20T10:09:39.447Z,6.88
2022-12-20T10:12:40.792Z,7.18
2022-12-20T10:15:49.986Z,8.60
2022-12-20T10:18:51.242Z,7.03
2022-12-20T10:22:06.133Z,6.75
2022-12-20T10:25:16.471Z,4.78
2022-12-20T10:28:19.856Z,8.35
2022-12-20T10:31:21.309Z,9.80
2022-12-20T10:34:23.672Z,5.68
2022-12-20T10:37:25.069Z,7.82
2022-12-20T10:41:01.443Z,6.90
2022-12-20T10:43:56.392Z,5.63
2022-12-20T10:46:59.368Z,6.70
2022-12-20T10:50:15.601Z,7.15
2022-12-20T10:53:21.628Z,8.48
2022-12-20T10:56:24.650Z,8.90
2022-12-20T10:59:25.906Z,6.25
2022-12-20T11:02:40.169Z,5.78
2022-12-20T11:06:03.409Z,4.15
2022-12-20T11:09:22.164Z,6.53
2022-12-20T11:12:23.472Z,3.97
2022-12-20T11:15:34.343Z,9.60
2022-12-20T11:18:56.813Z,4.85
2022-12-20T11:21:58.055Z,3.42
2022-12-20T11:25:11.097Z,4.85
2022-12-20T11:28:23.530Z,6.32
2022-12-20T11:31:37.958Z,9.65
2022-12-20T11:34:42.299Z,6.22
2022-12-20T11:37:52.575Z,13.07
2022-12-20T11:40:55.782Z,12.27
2022-12-20T11:44:23.841Z,10.13
2022-12-20T11:47:37.251Z,8.77
2022-12-20T11:50:41.322Z,6.68
2022-12-20T11:53:55.057Z,8.13
2022-12-20T11:57:00.019Z,8.48
2022-12-20T12:00:02.706Z,10.38
2022-12-20T12:03:10.387Z,11.13
2022-12-20T12:06:20.370Z,9.80
2022-12-20T12:09:24.640Z,7.38
2022-12-20T12:12:45.296Z,9.00
2022-12-20T12:16:06.218Z,5.05
2022-12-20T12:19:11.826Z,10.45
2022-12-20T12:22:16.787Z,6.95
2022-12-20T12:25:18.637Z,8.90
2022-12-20T12:28:20.559Z,9.25
2022-12-20T12:31:28.066Z,10.40
2022-12-20T12:34:29.436Z,7.53
2022-12-20T12:37:33.994Z,7.30
2022-12-20T12:40:52.253Z,9.27
2022-12-20T12:43:55.902Z,8.45
2022-12-20T12:47:00.785Z,7.43
2022-12-20T12:50:02.485Z,8.73
2022-12-20T12:53:06.274Z,6.93
2022-12-20T12:56:43.104Z,5.90
2022-12-20T12:59:48.145Z,6.40
2022-12-20T13:02:50.726Z,6.68
2022-12-20T13:05:52.074Z,4.68
2022-12-20T13:08:56.468Z,5.80
2022-12-20T13:12:03.318Z,7.05
2022-12-20T13:15:22.079Z,6.22
2022-12-20T13:18:24.455Z,7.32
2022-12-20T13:21:31.322Z,6.57
2022-12-20T13:24:49.060Z,7.32
2022-12-20T13:27:50.324Z,7.55
2022-12-20T13:31:00.679Z,11.32
2022-12-20T13:34:02.188Z,11.00
2022-12-20T13:37:03.537Z,8.02
2022-12-20T13:40:05.864Z,7.18
2022-12-20T13:43:19.473Z,6.57
2022-12-20T13:46:22.833Z,6.68
2022-12-20T13:49:26.895Z,6.78
2022-12-20T13:52:31.944Z,9.02
2022-12-20T13:55:40.001Z,7.20
2022-12-20T13:58:42.503Z,8.43
2022-12-20T14:01:47.697Z,9.23
2022-12-20T14:04:53.596Z,8.20
2022-12-20T14:07:59.874Z,7.95
2022-12-20T14:11:27.395Z,6.63
2022-12-20T14:14:28.724Z,8.25
2022-12-20T14:17:33.537Z,8.73
2022-12-20T14:20:36.355Z,6.00
2022-12-20T14:23:41.936Z,6.97
2022-12-20T14:26:45.327Z,6.00
2022-12-20T14:29:46.679Z,5.53
2022-12-20T14:32:49.542Z,7.53
2022-12-20T14:35:51.774Z,7.60
2022-12-20T14:38:53.182Z,5.93
2022-12-20T14:41:58.773Z,9.35
2022-12-20T14:45:04.234Z,7.80
2022-12-20T14:48:07.312Z,6.00
2022-12-20T14:51:08.667Z,6.78
2022-12-20T14:54:39.905Z,7.15
2022-12-20T14:57:45.060Z,6.18
2022-12-20T15:00:55.823Z,5.60
2022-12-20T15:03:58.457Z,7.82
2022-12-20T15:07:00.759Z,6.25
2022-12-20T15:10:03.102Z,5.00
2022-12-20T15:13:04.861Z,6.70
2022-12-20T15:16:14.390Z,6.60
2022-12-20T15:19:15.913Z,7.47
2022-12-20T15:22:18.681Z,6.88
2022-12-20T15:25:20.037Z,6.88
2022-12-20T15:28:23.240Z,8.38
2022-12-20T15:31:32.405Z,6.28
2022-12-20T15:34:35.907Z,5.88
2022-12-20T15:37:37.185Z,5.38
2022-12-20T15:40:39.413Z,4.90
2022-12-20T15:43:40.745Z,5.00
2022-12-20T15:46:42.241Z,5.10
2022-12-20T15:49:49.868Z,5.63
2022-12-20T15:52:51.616Z,6.80
2022-12-20T15:55:53.971Z,4.60
2022-12-20T15:58:55.853Z,6.00
2022-12-20T16:01:57.279Z,6.05
2022-12-20T16:04:59.868Z,8.85
2022-12-20T16:08:01.177Z,7.47
2022-12-20T16:11:02.490Z,8.52
2022-12-20T16:14:04.062Z,9.48
2022-12-20T16:17:05.949Z,5.78
2022-12-20T16:20:07.580Z,6.55
2022-12-20T16:23:19.711Z,7.93
2022-12-20T16:26:22.801Z,7.65
2022-12-20T16:29:24.142Z,5.88
2022-12-20T16:32:25.461Z,5.60
2022-12-20T16:35:28.644Z,6.57
2022-12-20T16:38:29.891Z,7.78
2022-12-20T16:41:32.052Z,7.78
2022-12-20T16:44:33.661Z,6.63
2022-12-20T16:47:35.012Z,6.70
2022-12-20T16:50:41.410Z,6.57
2022-12-20T16:54:09.918Z,5.70
2022-12-20T16:57:04.007Z,9.35
2022-12-20T17:00:06.775Z,5.43
2022-12-20T17:03:08.302Z,6.90
2022-12-20T17:06:09.988Z,6.47
2022-12-20T17:12:30.217Z,9.93
2022-12-20T17:15:31.917Z,11.18
2022-12-20T17:18:33.201Z,8.90
2022-12-20T17:24:54.918Z,8.20
2022-12-20T17:27:56.213Z,5.88
2022-12-20T17:31:04.030Z,6.53
2022-12-20T17:34:19.336Z,8.45
2022-12-20T17:37:21.467Z,7.97
2022-12-20T17:40:24.426Z,7.57
2022-12-20T17:43:25.744Z,5.93
2022-12-20T17:46:27.429Z,6.65
2022-12-20T17:49:28.837Z,6.07
2022-12-20T17:52:30.188Z,5.43
2022-12-20T17:55:32.196Z,6.07
2022-12-20T17:58:33.538Z,7.03
2022-12-20T18:01:35.900Z,6.38
2022-12-20T18:04:37.299Z,7.68
2022-12-20T18:07:38.706Z,9.20
2022-12-20T18:10:39.983Z,7.30
2022-12-20T18:13:45.478Z,6.32
2022-12-20T18:16:47.371Z,6.38
2022-12-20T18:19:48.736Z,5.43
2022-12-20T18:22:50.030Z,6.65
2022-12-20T18:25:51.313Z,6.60
2022-12-20T18:29:02.357Z,10.38
2022-12-20T18:32:03.841Z,6.30
2022-12-20T18:35:06.695Z,7.57
2022-12-20T18:38:07.980Z,8.15
2022-12-20T18:41:12.059Z,6.05
2022-12-20T18:44:13.372Z,6.70
2022-12-20T18:47:14.704Z,6.88
2022-12-20T18:50:16.040Z,10.50
2022-12-20T18:53:20.472Z,6.30
2022-12-20T18:56:24.878Z,6.95
2022-12-20T18:59:26.614Z,6.28
2022-12-20T19:02:28.024Z,6.10
2022-12-20T19:05:32.541Z,5.78
2022-12-20T19:08:34.049Z,8.60
2022-12-20T19:11:35.418Z,6.30
2022-12-20T19:14:36.713Z,7.65
2022-12-20T19:17:38.038Z,8.95
2022-12-20T19:20:39.351Z,8.65
2022-12-20T19:23:41.384Z,11.25
2022-12-20T19:26:44.135Z,6.75
2022-12-20T19:29:45.413Z,10.70
2022-12-20T19:32:46.915Z,6.22
2022-12-20T19:35:56.548Z,6.45
2022-12-20T19:38:59.221Z,6.78
2022-12-20T19:42:23.164Z,8.65
2022-12-20T19:45:22.037Z,6.03
2022-12-20T19:48:23.528Z,8.00
2022-12-20T19:51:25.675Z,7.45
2022-12-20T19:54:27.252Z,5.65
2022-12-20T19:57:28.551Z,8.30
2022-12-20T20:00:29.888Z,5.60
2022-12-20T20:03:32.472Z,7.13
2022-12-20T20:06:33.811Z,5.03
2022-12-20T20:09:35.184Z,6.97
2022-12-20T20:12:38.256Z,5.90
2022-12-20T20:15:39.643Z,6.25
2022-12-20T20:18:41.000Z,5.70
2022-12-20T20:21:42.339Z,8.13
2022-12-20T20:24:44.086Z,7.13
2022-12-20T20:27:45.802Z,7.65
2022-12-20T20:30:47.797Z,6.93
2022-12-20T20:33:49.315Z,7.57
2022-12-20T20:36:50.744Z,6.97
2022-12-20T20:39:52.102Z,7.55
2022-12-20T20:42:53.361Z,9.30
2022-12-20T20:45:54.678Z,6.78
2022-12-20T20:48:56.007Z,9.68
2022-12-20T20:51:57.253Z,6.70
2022-12-20T20:54:58.688Z,7.35
2022-12-20T20:58:00.030Z,7.55
2022-12-20T21:01:02.389Z,5.47
2022-12-20T21:04:04.445Z,8.48
2022-12-20T21:07:05.878Z,11.52
2022-12-20T21:10:07.888Z,7.18
2022-12-20T21:13:09.381Z,10.35
2022-12-20T21:16:12.563Z,8.80
2022-12-20T21:19:14.344Z,8.80
2022-12-20T21:22:15.641Z,7.10
2022-12-20T21:25:17.228Z,8.27
2022-12-20T21:28:21.485Z,9.68
2022-12-20T21:31:22.942Z,8.48
2022-12-20T21:34:24.324Z,8.43
2022-12-20T21:37:25.750Z,9.52
2022-12-20T21:40:27.168Z,10.95
2022-12-20T21:43:28.748Z,8.15
2022-12-20T21:46:31.800Z,8.10
2022-12-20T21:49:33.277Z,7.78
2022-12-20T21:52:35.195Z,11.65
2022-12-20T21:55:36.465Z,8.27
2022-12-20T21:58:39.023Z,7.05
2022-12-20T22:01:40.464Z,6.63
2022-12-20T22:04:41.914Z,6.68
2022-12-20T22:07:45.368Z,9.57
2022-12-20T22:10:46.979Z,7.18
2022-12-20T22:13:48.362Z,7.63
2022-12-20T22:16:49.881Z,9.68
2022-12-20T22:19:51.152Z,9.00
2022-12-20T22:22:53.120Z,8.73
2022-12-20T22:25:54.386Z,6.47
2022-12-20T22:28:57.292Z,6.82
2022-12-20T22:31:58.656Z,8.73
2022-12-20T22:35:00.053Z,6.72
2022-12-20T22:38:01.892Z,4.20
2022-12-20T22:41:10.405Z,12.02
2022-12-20T22:44:11.784Z,6.13
2022-12-20T22:47:13.143Z,8.30
2022-12-20T22:50:14.535Z,6.32
2022-12-20T22:53:15.960Z,4.60
2022-12-20T22:56:18.685Z,7.25
2022-12-20T22:59:20.101Z,6.55
2022-12-20T23:02:21.646Z,6.05
2022-12-20T23:05:23.086Z,8.60
2022-12-20T23:08:25.145Z,5.05
2022-12-20T23:11:45.603Z,5.47
2022-12-20T23:15:25.264Z,6.45
2022-12-20T23:18:26.497Z,7.43
2022-12-20T23:21:46.625Z,4.95
2022-12-20T23:24:47.979Z,5.80
2022-12-20T23:27:49.828Z,7.32
2022-12-20T23:30:51.137Z,6.82
2022-12-20T23:33:52.447Z,8.30
2022-12-20T23:36:53.741Z,7.32
2022-12-20T23:39:55.225Z,6.57
2022-12-20T23:42:56.679Z,8.18
2022-12-20T23:46:04.958Z,6.10
2022-12-20T23:49:06.337Z,7.22
2022-12-20T23:52:07.672Z,5.03
2022-12-20T23:55:09.424Z,8.73
2022-12-20T23:58:10.673Z,6.95
